createdAt,value
2023-05-05T00:01:38.016Z,62.20
2023-05-05T00:04:04.968Z,62.40
2023-05-05T00:06:31.894Z,62.40
2023-05-05T00:08:58.702Z,62.30
2023-05-05T00:11:26.065Z,62.80
2023-05-05T00:13:53.005Z,62.70
2023-05-05T00:16:20.018Z,62.90
2023-05-05T00:18:47.303Z,62.70
2023-05-05T00:21:14.086Z,62.70
2023-05-05T00:23:40.953Z,62.90
2023-05-05T00:26:07.843Z,63.00
2023-05-05T00:28:34.714Z,63.10
2023-05-05T00:31:01.700Z,63.30
2023-05-05T00:33:28.727Z,63.30
2023-05-05T00:35:55.546Z,63.30
2023-05-05T00:38:23.275Z,63.30
2023-05-05T00:40:50.116Z,63.20
2023-05-05T00:43:16.919Z,63.40
2023-05-05T00:45:47.464Z,63.40
2023-05-05T00:48:14.620Z,63.40
2023-05-05T00:50:43.866Z,63.60
2023-05-05T00:53:10.827Z,63.90
2023-05-05T00:55:37.775Z,64.10
2023-05-05T00:58:05.143Z,64.40
2023-05-05T01:00:32.234Z,64.80
2023-05-05T01:02:59.622Z,64.70
2023-05-05T01:05:32.174Z,65.40
2023-05-05T01:08:31.701Z,65.80
2023-05-05T01:11:08.526Z,65.80
2023-05-05T01:14:14.331Z,65.80
2023-05-05T01:17:04.388Z,66.10
2023-05-05T01:20:09.283Z,66.20
2023-05-05T01:22:43.139Z,66.50
2023-05-05T01:25:47.755Z,66.90
2023-05-05T01:28:31.158Z,67.10
2023-05-05T01:31:18.299Z,67.00
2023-05-05T01:33:51.784Z,67.50
2023-05-05T01:36:35.121Z,67.60
2023-05-05T01:39:04.394Z,67.70
2023-05-05T01:41:41.160Z,67.50
2023-05-05T01:44:11.698Z,67.90
2023-05-05T01:46:38.460Z,68.30
2023-05-05T01:49:06.599Z,68.40
2023-05-05T01:51:34.765Z,68.50
2023-05-05T01:54:08.095Z,68.70
2023-05-05T01:56:37.735Z,69.00
2023-05-05T01:59:06.988Z,69.20
2023-05-05T02:01:38.752Z,69.70
2023-05-05T02:04:09.814Z,69.30
2023-05-05T02:06:38.268Z,70.00
2023-05-05T02:09:06.560Z,70.80
2023-05-05T02:11:34.158Z,70.80
2023-05-05T02:14:02.181Z,71.80
2023-05-05T02:16:31.150Z,71.30
2023-05-05T02:19:01.795Z,71.60
2023-05-05T02:21:28.687Z,71.80
2023-05-05T02:23:55.656Z,72.00
2023-05-05T02:26:24.282Z,71.50
2023-05-05T02:29:09.372Z,71.80
2023-05-05T02:31:45.394Z,72.40
2023-05-05T02:34:16.346Z,72.70
2023-05-05T02:36:44.642Z,72.90
2023-05-05T02:39:19.692Z,73.10
2023-05-05T02:41:49.569Z,72.90
2023-05-05T02:44:19.801Z,73.00
2023-05-05T02:46:47.246Z,72.70
2023-05-05T02:49:15.483Z,74.10
2023-05-05T02:51:42.371Z,73.70
2023-05-05T02:54:09.693Z,73.70
2023-05-05T02:56:51.185Z,74.70
2023-05-05T02:59:54.642Z,74.90
2023-05-05T03:02:40.983Z,75.00
2023-05-05T03:05:23.945Z,75.40
2023-05-05T03:08:20.369Z,75.40
2023-05-05T03:11:00.091Z,75.80
2023-05-05T03:13:29.464Z,75.40
2023-05-05T03:15:58.561Z,75.40
2023-05-05T03:18:28.409Z,75.90
2023-05-05T03:20:55.681Z,75.30
2023-05-05T03:23:22.973Z,75.10
2023-05-05T03:25:50.614Z,75.80
2023-05-05T03:28:18.437Z,75.90
2023-05-05T03:30:45.600Z,75.80
2023-05-05T03:33:12.410Z,76.40
2023-05-05T03:35:39.264Z,76.40
2023-05-05T03:38:06.056Z,75.90
2023-05-05T03:40:43.675Z,75.70
2023-05-05T03:43:11.456Z,75.90
2023-05-05T03:45:38.641Z,76.30
2023-05-05T03:48:06.201Z,75.90
2023-05-05T03:50:33.081Z,76.60
2023-05-05T03:52:59.880Z,76.60
2023-05-05T03:55:26.762Z,76.10
2023-05-05T03:57:53.597Z,76.30
2023-05-05T04:00:20.504Z,76.10
2023-05-05T04:02:47.389Z,75.90
2023-05-05T04:05:14.353Z,75.90
2023-05-05T04:07:41.152Z,76.10
2023-05-05T04:10:09.076Z,76.40
2023-05-05T04:12:36.058Z,76.60
2023-05-05T04:15:03.118Z,76.60
2023-05-05T04:17:29.939Z,77.00
2023-05-05T04:19:57.063Z,77.10
2023-05-05T04:22:23.965Z,77.00
2023-05-05T04:24:50.754Z,77.00
2023-05-05T04:27:17.588Z,77.10
2023-05-05T04:29:44.458Z,77.70
2023-05-05T04:32:11.292Z,77.70
2023-05-05T04:34:38.114Z,77.90
2023-05-05T04:37:04.905Z,78.30
2023-05-05T04:39:31.730Z,78.30
2023-05-05T04:41:58.718Z,78.20
2023-05-05T04:44:25.758Z,78.00
2023-05-05T04:46:52.707Z,78.30
2023-05-05T04:49:19.644Z,78.70
2023-05-05T04:51:46.748Z,78.50
2023-05-05T04:54:13.624Z,78.20
2023-05-05T04:56:40.758Z,78.10
2023-05-05T04:59:07.619Z,78.90
2023-05-05T05:01:36.219Z,79.30
2023-05-05T05:04:05.045Z,79.40
2023-05-05T05:06:32.238Z,79.30
2023-05-05T05:08:59.647Z,79.90
2023-05-05T05:11:27.141Z,79.90
2023-05-05T05:13:54.203Z,80.50
2023-05-05T05:16:21.538Z,80.60
2023-05-05T05:18:48.479Z,80.70
2023-05-05T05:21:15.251Z,80.90
2023-05-05T05:23:42.013Z,80.90
2023-05-05T05:26:08.881Z,80.80
2023-05-05T05:28:35.701Z,80.80
2023-05-05T05:31:02.983Z,80.90
2023-05-05T05:33:29.788Z,81.00
2023-05-05T05:35:56.804Z,81.00
2023-05-05T05:38:23.672Z,81.00
2023-05-05T05:40:50.647Z,80.80
2023-05-05T05:43:17.443Z,80.60
2023-05-05T05:45:44.437Z,80.70
2023-05-05T05:48:11.253Z,80.30
2023-05-05T05:50:38.198Z,79.90
2023-05-05T05:53:05.033Z,79.90
2023-05-05T05:55:31.972Z,79.80
2023-05-05T05:57:58.835Z,79.70
2023-05-05T06:00:26.051Z,80.00
2023-05-05T06:02:52.999Z,79.70
2023-05-05T06:05:19.943Z,79.60
2023-05-05T06:07:46.730Z,79.70
2023-05-05T06:10:26.590Z,79.90
2023-05-05T06:12:55.060Z,79.80
2023-05-05T06:15:21.957Z,80.00
2023-05-05T06:17:48.782Z,80.20
2023-05-05T06:20:15.712Z,80.30
2023-05-05T06:22:42.810Z,80.40
2023-05-05T06:25:09.840Z,80.60
2023-05-05T06:27:36.715Z,80.50
2023-05-05T06:30:03.981Z,80.80
2023-05-05T06:32:30.835Z,81.00
2023-05-05T06:34:57.739Z,80.90
2023-05-05T06:37:24.572Z,81.10
2023-05-05T06:39:51.330Z,80.80
2023-05-05T06:42:18.096Z,81.00
2023-05-05T06:44:44.863Z,80.90
2023-05-05T06:47:11.736Z,80.70
2023-05-05T06:49:38.730Z,81.00
2023-05-05T06:52:05.576Z,81.00
2023-05-05T06:54:32.371Z,81.30
2023-05-05T06:56:59.781Z,81.20
2023-05-05T06:59:27.225Z,81.60
2023-05-05T07:01:53.986Z,81.40
2023-05-05T07:04:21.364Z,81.10
2023-05-05T07:06:48.168Z,81.20
2023-05-05T07:09:16.992Z,81.40
2023-05-05T07:11:44.332Z,81.20
2023-05-05T07:14:11.383Z,80.90
2023-05-05T07:16:39.117Z,81.00
2023-05-05T07:19:06.353Z,81.00
2023-05-05T07:21:34.386Z,81.10
2023-05-05T07:24:03.410Z,80.90
2023-05-05T07:26:30.587Z,80.90
2023-05-05T07:28:58.873Z,80.30
2023-05-05T07:31:26.534Z,80.40
2023-05-05T07:33:53.566Z,79.90
2023-05-05T07:36:20.666Z,80.10
2023-05-05T07:38:47.603Z,79.90
2023-05-05T07:41:14.480Z,79.90
2023-05-05T07:43:44.175Z,80.10
2023-05-05T07:46:12.177Z,80.30
2023-05-05T07:48:41.669Z,79.80
2023-05-05T07:51:09.496Z,79.90
2023-05-05T07:53:37.101Z,80.00
2023-05-05T07:56:04.169Z,80.30
2023-05-05T07:58:30.995Z,80.20
2023-05-05T08:00:57.796Z,80.00
2023-05-05T08:03:25.171Z,79.70
2023-05-05T08:05:54.613Z,79.50
2023-05-05T08:08:24.670Z,79.00
2023-05-05T08:10:53.257Z,78.10
2023-05-05T08:13:20.475Z,77.90
2023-05-05T08:15:47.624Z,78.40
2023-05-05T08:18:14.941Z,78.20
2023-05-05T08:20:41.879Z,78.60
2023-05-05T08:23:08.798Z,78.50
2023-05-05T08:25:36.014Z,78.50
2023-05-05T08:28:02.952Z,78.00
2023-05-05T08:30:29.900Z,77.10
2023-05-05T08:32:57.240Z,76.80
2023-05-05T08:35:24.226Z,76.90
2023-05-05T08:37:52.307Z,76.90
2023-05-05T08:40:21.267Z,77.00
2023-05-05T08:42:48.432Z,77.00
2023-05-05T08:45:15.974Z,76.40
2023-05-05T08:47:43.554Z,76.70
2023-05-05T08:50:11.714Z,76.10
2023-05-05T08:52:45.059Z,76.30
2023-05-05T08:55:28.002Z,76.80
2023-05-05T08:58:01.013Z,76.80
2023-05-05T09:00:28.435Z,77.10
2023-05-05T09:03:00.026Z,77.20
2023-05-05T09:05:27.668Z,78.00
2023-05-05T09:07:54.754Z,77.00
2023-05-05T09:10:21.849Z,77.00
2023-05-05T09:12:51.015Z,77.20
2023-05-05T09:15:17.938Z,77.20
2023-05-05T09:17:44.830Z,77.20
2023-05-05T09:20:14.428Z,77.10
2023-05-05T09:22:47.079Z,77.40
2023-05-05T09:25:18.792Z,77.60
2023-05-05T09:27:49.183Z,77.70
2023-05-05T09:30:25.070Z,77.30
2023-05-05T09:32:54.867Z,77.60
2023-05-05T09:35:23.167Z,77.90
2023-05-05T09:37:50.192Z,78.20
2023-05-05T09:40:19.644Z,78.50
2023-05-05T09:42:47.312Z,78.60
2023-05-05T09:45:20.181Z,78.80
2023-05-05T09:47:48.323Z,79.00
2023-05-05T09:50:18.562Z,79.00
2023-05-05T09:53:00.934Z,79.20
2023-05-05T09:55:28.330Z,79.80
2023-05-05T09:57:55.291Z,79.60
2023-05-05T10:00:22.525Z,80.00
2023-05-05T10:02:49.684Z,80.30
2023-05-05T10:05:19.111Z,80.60
2023-05-05T10:07:47.587Z,81.10
2023-05-05T10:10:17.198Z,81.10
2023-05-05T10:12:47.645Z,80.70
2023-05-05T10:15:15.963Z,80.60
2023-05-05T10:20:19.189Z,79.70
2023-05-05T10:22:52.948Z,79.60
2023-05-05T10:25:30.131Z,79.80
2023-05-05T10:28:00.831Z,79.90
2023-05-05T10:30:37.064Z,80.00
2023-05-05T10:35:59.994Z,80.00
2023-05-05T10:38:31.058Z,79.40
2023-05-05T10:41:00.175Z,79.10
2023-05-05T10:43:30.034Z,78.60
2023-05-05T10:45:57.508Z,78.90
2023-05-05T10:49:13.597Z,79.20
2023-05-05T10:52:39.293Z,78.70
2023-05-05T10:55:44.323Z,78.60
2023-05-05T10:58:36.577Z,77.60
2023-05-05T11:01:09.256Z,78.50
2023-05-05T11:03:36.409Z,79.10
2023-05-05T11:06:07.707Z,79.40
2023-05-05T11:08:38.233Z,80.10
2023-05-05T11:11:06.173Z,78.90
2023-05-05T11:13:33.057Z,80.20
2023-05-05T11:16:02.120Z,79.90
2023-05-05T11:18:29.419Z,78.00
2023-05-05T11:20:59.400Z,77.20
2023-05-05T11:23:27.046Z,78.10
2023-05-05T11:25:55.755Z,78.90
2023-05-05T11:28:25.860Z,78.00
2023-05-05T11:30:55.864Z,78.00
2023-05-05T11:33:34.088Z,77.90
2023-05-05T11:36:10.177Z,78.00
2023-05-05T11:39:08.752Z,78.10
2023-05-05T11:42:16.016Z,78.40
2023-05-05T11:44:43.018Z,78.70
2023-05-05T11:47:09.817Z,79.40
2023-05-05T11:49:38.942Z,79.30
2023-05-05T11:52:09.742Z,80.10
2023-05-05T11:54:47.422Z,80.20
2023-05-05T11:57:15.704Z,81.20
2023-05-05T12:00:08.206Z,81.50
2023-05-05T12:02:36.054Z,81.90
2023-05-05T12:05:03.215Z,82.00
2023-05-05T12:07:33.145Z,82.50
2023-05-05T12:10:00.898Z,82.90
2023-05-05T12:12:40.046Z,83.50
2023-05-05T12:15:09.188Z,83.70
2023-05-05T12:17:44.800Z,83.00
2023-05-05T12:20:13.309Z,82.60
2023-05-05T12:22:40.659Z,81.80
2023-05-05T12:25:08.952Z,81.30
2023-05-05T12:27:36.251Z,81.40
2023-05-05T12:30:16.196Z,81.80
2023-05-05T12:32:44.129Z,82.30
2023-05-05T12:35:12.942Z,82.30
2023-05-05T12:37:40.616Z,82.50
2023-05-05T12:40:09.076Z,83.50
2023-05-05T12:42:39.964Z,84.80
2023-05-05T12:45:15.845Z,86.00
2023-05-05T12:47:44.011Z,86.50
2023-05-05T12:50:11.164Z,87.00
2023-05-05T12:52:45.570Z,88.20
2023-05-05T12:55:13.280Z,88.70
2023-05-05T12:58:00.844Z,88.80
2023-05-05T13:00:29.165Z,89.30
2023-05-05T13:02:56.763Z,89.90
2023-05-05T13:05:36.265Z,89.40
2023-05-05T13:08:03.158Z,89.60
2023-05-05T13:10:31.191Z,89.50
2023-05-05T13:12:58.505Z,88.90
2023-05-05T13:15:26.074Z,88.10
2023-05-05T13:18:02.649Z,88.40
2023-05-05T13:20:29.720Z,88.50
2023-05-05T13:22:57.280Z,88.90
2023-05-05T13:25:24.260Z,89.00
2023-05-05T13:27:51.074Z,89.50
2023-05-05T13:30:17.995Z,89.40
2023-05-05T13:32:44.794Z,89.20
2023-05-05T13:35:14.646Z,89.70
2023-05-05T13:37:44.329Z,89.70
2023-05-05T13:40:13.240Z,89.90
2023-05-05T13:42:39.990Z,90.30
2023-05-05T13:45:07.773Z,90.80
2023-05-05T13:47:34.953Z,91.10
2023-05-05T13:50:02.076Z,91.30
2023-05-05T13:52:29.876Z,91.40
2023-05-05T13:54:58.524Z,91.30
2023-05-05T13:57:25.661Z,91.30
2023-05-05T13:59:52.506Z,91.50
2023-05-05T14:02:19.396Z,91.20
2023-05-05T14:04:46.258Z,91.00
2023-05-05T14:07:13.188Z,90.80
2023-05-05T14:09:39.964Z,90.90
2023-05-05T14:12:06.849Z,91.00
2023-05-05T14:14:34.430Z,91.00
2023-05-05T14:17:01.367Z,90.90
2023-05-05T14:19:28.275Z,90.70
2023-05-05T14:21:55.255Z,90.80
2023-05-05T14:24:22.216Z,90.80
2023-05-05T14:26:49.273Z,90.70
2023-05-05T14:29:16.048Z,90.60
2023-05-05T14:31:42.972Z,91.00
2023-05-05T14:34:09.772Z,90.70
2023-05-05T14:36:36.608Z,90.70
2023-05-05T14:39:03.454Z,90.60
2023-05-05T14:41:30.290Z,90.60
2023-05-05T14:43:57.193Z,90.60
2023-05-05T14:46:24.072Z,90.60
2023-05-05T14:48:50.935Z,90.80
2023-05-05T14:51:17.735Z,90.90
2023-05-05T14:53:44.632Z,91.00
2023-05-05T14:56:11.411Z,91.00
2023-05-05T14:58:38.336Z,91.00
2023-05-05T15:01:05.316Z,91.00
2023-05-05T15:03:32.414Z,91.10
2023-05-05T15:05:59.347Z,91.20
2023-05-05T15:08:26.434Z,91.20
2023-05-05T15:10:53.317Z,91.40
2023-05-05T15:13:20.268Z,91.70
2023-05-05T15:15:48.365Z,91.90
2023-05-05T15:18:15.470Z,92.30
2023-05-05T15:20:42.368Z,92.50
2023-05-05T15:23:09.502Z,92.60
2023-05-05T15:25:36.556Z,92.70
2023-05-05T15:28:03.363Z,92.80
2023-05-05T15:30:30.371Z,93.00
2023-05-05T15:32:57.800Z,93.20
2023-05-05T15:35:27.346Z,93.50
2023-05-05T15:37:54.587Z,93.70
2023-05-05T15:40:21.685Z,94.10
2023-05-05T15:42:49.816Z,94.60
2023-05-05T15:45:17.184Z,95.10
2023-05-05T15:47:43.993Z,95.80
2023-05-05T15:50:10.976Z,95.90
2023-05-05T15:52:38.032Z,96.30
2023-05-05T15:55:05.580Z,96.80
2023-05-05T15:57:34.164Z,97.30
2023-05-05T16:00:01.496Z,97.50
2023-05-05T16:02:28.343Z,97.70
2023-05-05T16:04:55.160Z,97.90
2023-05-05T16:07:21.992Z,97.80
2023-05-05T16:09:48.858Z,97.80
2023-05-05T16:12:15.750Z,97.80
2023-05-05T16:14:42.601Z,98.00
2023-05-05T16:17:09.433Z,98.50
2023-05-05T16:19:36.247Z,99.60
2023-05-05T16:22:03.097Z,99.90
2023-05-05T16:24:29.954Z,99.90
2023-05-05T16:26:56.860Z,99.90
2023-05-05T16:29:23.716Z,99.90
2023-05-05T16:31:50.660Z,99.90
2023-05-05T16:34:17.520Z,99.90
2023-05-05T16:36:44.598Z,99.90
2023-05-05T16:39:11.880Z,99.90
2023-05-05T16:41:38.968Z,99.90
2023-05-05T16:44:06.194Z,99.90
2023-05-05T16:46:37.168Z,99.90
2023-05-05T16:49:04.534Z,99.90
2023-05-05T16:51:31.509Z,99.90
2023-05-05T16:53:58.309Z,99.90
2023-05-05T16:56:25.119Z,99.90
2023-05-05T16:58:52.436Z,99.90
2023-05-05T17:01:19.318Z,99.90
2023-05-05T17:03:46.135Z,99.90
2023-05-05T17:06:13.040Z,99.90
2023-05-05T17:08:39.892Z,99.90
2023-05-05T17:11:06.696Z,99.90
2023-05-05T17:13:33.508Z,99.90
2023-05-05T17:16:00.445Z,99.90
2023-05-05T17:18:27.346Z,99.90
2023-05-05T17:20:54.208Z,99.90
2023-05-05T17:23:23.960Z,99.90
2023-05-05T17:25:51.424Z,99.90
2023-05-05T17:28:18.399Z,99.90
2023-05-05T17:30:45.477Z,99.90
2023-05-05T17:33:12.347Z,99.90
2023-05-05T17:35:39.241Z,99.90
2023-05-05T17:38:06.220Z,99.90
2023-05-05T17:40:33.087Z,99.90
2023-05-05T17:42:59.902Z,99.90
2023-05-05T17:45:26.958Z,99.90
2023-05-05T17:47:53.818Z,99.90
2023-05-05T17:50:20.709Z,99.90
2023-05-05T17:52:47.589Z,99.90
2023-05-05T17:55:14.350Z,99.90
2023-05-05T17:57:41.201Z,99.90
2023-05-05T18:00:09.141Z,99.90
2023-05-05T18:02:39.284Z,99.90
2023-05-05T18:05:06.681Z,99.90
2023-05-05T18:07:34.486Z,99.90
2023-05-05T18:10:01.363Z,99.90
2023-05-05T18:12:28.179Z,99.90
2023-05-05T18:14:54.991Z,99.90
2023-05-05T18:17:21.788Z,99.90
2023-05-05T18:19:49.364Z,99.90
2023-05-05T18:22:16.449Z,99.90
2023-05-05T18:24:43.300Z,99.90
2023-05-05T18:27:10.219Z,99.90
2023-05-05T18:29:37.088Z,99.90
2023-05-05T18:32:06.420Z,99.90
2023-05-05T18:34:33.376Z,99.90
2023-05-05T18:37:00.518Z,99.90
2023-05-05T18:39:27.475Z,99.90
2023-05-05T18:41:54.260Z,99.90
2023-05-05T18:44:21.059Z,99.90
2023-05-05T18:46:48.468Z,99.90
2023-05-05T18:49:16.242Z,99.90
2023-05-05T18:51:43.839Z,99.90
2023-05-05T18:54:10.756Z,99.90
2023-05-05T18:56:37.544Z,99.90
2023-05-05T18:59:04.846Z,99.90
2023-05-05T19:01:31.738Z,99.90
2023-05-05T19:03:58.709Z,99.90
2023-05-05T19:06:25.570Z,99.90
2023-05-05T19:08:52.425Z,99.90
2023-05-05T19:11:19.244Z,99.90
2023-05-05T19:13:46.200Z,99.90
2023-05-05T19:16:13.130Z,99.90
2023-05-05T19:18:39.987Z,99.90
2023-05-05T19:21:06.816Z,99.90
2023-05-05T19:23:35.896Z,99.90
2023-05-05T19:26:03.689Z,99.90
2023-05-05T19:28:30.482Z,99.90
2023-05-05T19:30:57.500Z,99.90
2023-05-05T19:33:24.448Z,99.90
2023-05-05T19:35:51.406Z,99.90
2023-05-05T19:38:18.254Z,99.90
2023-05-05T19:40:45.057Z,99.90
2023-05-05T19:43:11.880Z,99.90
2023-05-05T19:45:38.773Z,99.90
2023-05-05T19:48:06.325Z,99.90
2023-05-05T19:50:33.156Z,99.90
2023-05-05T19:53:00.027Z,99.90
2023-05-05T19:55:27.280Z,99.90
2023-05-05T19:57:54.146Z,99.90
2023-05-05T20:00:21.232Z,99.90
2023-05-05T20:02:49.030Z,99.90
2023-05-05T20:05:17.392Z,99.90
2023-05-05T20:07:46.835Z,99.90
2023-05-05T20:10:13.947Z,99.90
2023-05-05T20:12:47.624Z,99.90
2023-05-05T20:15:18.609Z,99.90
2023-05-05T20:17:47.340Z,99.90
2023-05-05T20:20:18.604Z,99.90
2023-05-05T20:22:47.147Z,99.90
2023-05-05T20:25:17.160Z,99.90
2023-05-05T20:27:45.236Z,99.90
2023-05-05T20:30:13.358Z,99.90
2023-05-05T20:32:40.765Z,99.90
2023-05-05T20:35:08.723Z,99.90
2023-05-05T20:37:35.530Z,99.90
2023-05-05T20:40:02.466Z,99.90
2023-05-05T20:42:29.709Z,99.90
2023-05-05T20:44:56.898Z,99.90
2023-05-05T20:47:24.176Z,99.90
2023-05-05T20:49:52.252Z,99.90
2023-05-05T20:52:19.335Z,99.90
2023-05-05T20:54:46.158Z,99.90
2023-05-05T20:57:13.162Z,99.90
2023-05-05T20:59:39.997Z,99.90
2023-05-05T21:02:07.422Z,99.90
2023-05-05T21:04:34.456Z,99.90
2023-05-05T21:07:01.354Z,99.90
2023-05-05T21:09:28.323Z,99.90
2023-05-05T21:11:55.166Z,99.90
2023-05-05T21:14:22.132Z,99.90
2023-05-05T21:16:48.998Z,99.90
2023-05-05T21:19:16.336Z,99.90
2023-05-05T21:21:43.187Z,99.90
2023-05-05T21:24:10.491Z,99.90
2023-05-05T21:26:37.274Z,99.90
2023-05-05T21:29:04.130Z,99.90
2023-05-05T21:31:30.959Z,99.90
2023-05-05T21:33:57.809Z,99.90
2023-05-05T21:36:24.802Z,99.90
2023-05-05T21:38:51.725Z,99.90
2023-05-05T21:41:18.566Z,99.90
2023-05-05T21:43:45.411Z,99.90
2023-05-05T21:46:12.341Z,99.90
2023-05-05T21:48:39.975Z,99.90
2023-05-05T21:51:07.132Z,99.90
2023-05-05T21:53:34.090Z,99.90
2023-05-05T21:56:01.353Z,99.90
2023-05-05T21:58:29.051Z,99.90
2023-05-05T22:00:56.404Z,99.90
2023-05-05T22:03:23.505Z,99.90
2023-05-05T22:05:50.403Z,99.90
2023-05-05T22:08:18.939Z,99.90
2023-05-05T22:10:46.082Z,99.90
2023-05-05T22:13:13.873Z,99.90
2023-05-05T22:15:46.529Z,99.90
2023-05-05T22:18:15.008Z,99.90
2023-05-05T22:20:42.218Z,99.90
2023-05-05T22:23:09.265Z,99.90
2023-05-05T22:25:36.151Z,99.90
2023-05-05T22:28:03.142Z,99.90
2023-05-05T22:30:29.979Z,99.90
2023-05-05T22:32:56.978Z,99.90
2023-05-05T22:35:23.878Z,99.90
2023-05-05T22:37:50.787Z,99.90
2023-05-05T22:40:17.708Z,99.90
2023-05-05T22:42:44.715Z,99.90
2023-05-05T22:45:11.953Z,99.90
2023-05-05T22:47:39.120Z,99.90
2023-05-05T22:50:07.746Z,99.90
2023-05-05T22:52:34.626Z,99.90
2023-05-05T22:55:01.639Z,99.90
2023-05-05T22:57:28.467Z,99.90
2023-05-05T22:59:55.337Z,99.90
2023-05-05T23:02:22.220Z,99.90
2023-05-05T23:04:49.034Z,99.90
2023-05-05T23:07:15.897Z,99.90
2023-05-05T23:09:42.704Z,99.90
2023-05-05T23:12:09.617Z,99.90
2023-05-05T23:14:36.511Z,99.90
2023-05-05T23:17:03.361Z,99.90
2023-05-05T23:19:32.401Z,99.90
2023-05-05T23:22:00.190Z,99.90
2023-05-05T23:24:28.553Z,99.90
2023-05-05T23:26:59.713Z,99.90
2023-05-05T23:29:26.620Z,99.90
2023-05-05T23:31:53.445Z,99.90
2023-05-05T23:34:20.275Z,99.90
2023-05-05T23:36:47.051Z,99.90
2023-05-05T23:39:13.975Z,99.90
2023-05-05T23:41:40.787Z,99.90
2023-05-05T23:44:07.673Z,99.90
2023-05-05T23:46:34.712Z,99.90
2023-05-05T23:49:01.687Z,99.90
2023-05-05T23:51:29.273Z,99.90
2023-05-05T23:53:57.298Z,99.90
2023-05-05T23:56:24.597Z,99.90
2023-05-05T23:58:52.867Z,99.90
